Time;durP1;ratioP1;P1;durP2;ratioP2;P2;SDS_P1;SDS_P2;PMS_P1;PMS_P2;Temp;Humidity;BMP_temperature;BMP_pressure;BME280_temperature;BME280_humidity;BME280_pressure;Samples;Min_cycle;Max_cycle;Signal;HPM_P1;HPM_P2
2023/12/29 00:00:02;;;;;;;27.60;15.40;;;;;;;-0.89;73.06;101414.52;107282;1257;108310;-63
2023/12/29 00:02:32;;;;;;;39.60;15.10;;;;;;;-0.87;73.22;101417.96;107307;1257;97747;-63
2023/12/29 00:05:01;;;;;;;29.60;14.20;;;;;;;-0.82;73.15;101411.65;107292;1257;97736;-61
2023/12/29 00:07:29;;;;;;;27.30;16.30;;;;;;;-0.76;72.97;101404.08;107284;1255;112058;-62
2023/12/29 00:09:57;;;;;;;31.90;16.50;;;;;;;-0.75;72.94;101396.11;107229;1256;107722;-62
2023/12/29 00:12:26;;;;;;;32.50;15.40;;;;;;;-0.74;72.83;101392.54;107261;1257;108504;-62
2023/12/29 00:14:54;;;;;;;27.00;14.40;;;;;;;-0.72;72.65;101399.52;107287;1257;97889;-61
2023/12/29 00:17:22;;;;;;;26.40;15.30;;;;;;;-0.72;72.45;101404.29;107278;1259;97749;-61
2023/12/29 00:19:51;;;;;;;30.50;15.30;;;;;;;-0.71;72.63;101412.92;107252;1256;111389;-62
2023/12/29 00:22:21;;;;;;;32.10;15.90;;;;;;;-0.76;72.61;101412.17;107261;1257;107914;-63
2023/12/29 00:24:49;;;;;;;27.60;16.40;;;;;;;-0.80;72.40;101410.89;107288;1257;108186;-61
2023/12/29 00:27:18;;;;;;;33.20;16.50;;;;;;;-0.83;72.18;101418.73;107245;1257;97815;-63
2023/12/29 00:29:46;;;;;;;31.80;16.40;;;;;;;-0.85;72.36;101417.75;107260;1257;97939;-64
2023/12/29 00:32:15;;;;;;;37.90;16.60;;;;;;;-0.88;72.65;101411.51;107284;1257;111713;-62
2023/12/29 00:34:43;;;;;;;33.90;17.90;;;;;;;-0.94;71.80;101409.55;107331;1257;106483;-64
2023/12/29 00:37:12;;;;;;;32.70;17.00;;;;;;;-0.98;72.00;101409.30;107292;1259;107401;-64
2023/12/29 00:39:40;;;;;;;29.60;16.00;;;;;;;-1.02;72.05;101407.85;107172;1256;97835;-65
2023/12/29 00:42:09;;;;;;;37.80;18.60;;;;;;;-1.07;71.99;101415.20;107302;1256;97922;-62
2023/12/29 00:44:37;;;;;;;32.80;17.70;;;;;;;-1.14;72.07;101412.42;107273;1257;111242;-61
2023/12/29 00:47:05;;;;;;;30.30;17.00;;;;;;;-1.21;71.86;101410.36;107186;1256;107997;-61
2023/12/29 00:49:34;;;;;;;33.50;19.10;;;;;;;-1.29;71.67;101407.40;107259;1256;108276;-60
2023/12/29 00:52:03;;;;;;;38.80;16.70;;;;;;;-1.36;71.72;101408.66;107260;1257;97864;-63
2023/12/29 00:54:31;;;;;;;30.60;15.00;;;;;;;-1.41;71.85;101406.70;107343;1256;98374;-63
2023/12/29 00:57:00;;;;;;;34.10;16.10;;;;;;;-1.46;71.70;101411.23;107350;1257;112267;-62
2023/12/29 00:59:28;;;;;;;29.80;16.50;;;;;;;-1.51;71.75;101409.45;107180;1257;107821;-61
2023/12/29 01:01:57;;;;;;;31.50;17.00;;;;;;;-1.56;71.82;101405.86;107275;1257;108704;-62
2023/12/29 01:04:25;;;;;;;33.40;17.00;;;;;;;-1.60;71.95;101404.73;107312;1259;97876;-61
2023/12/29 01:06:54;;;;;;;30.30;15.40;;;;;;;-1.62;71.77;101406.92;107262;1256;99543;-63
2023/12/29 01:09:22;;;;;;;27.80;15.80;;;;;;;-1.63;71.83;101399.75;107265;1257;112086;-64
2023/12/29 01:11:51;;;;;;;50.30;22.00;;;;;;;-1.65;71.77;101396.98;107290;1258;108475;-64
2023/12/29 01:14:19;;;;;;;100.50;35.80;;;;;;;-1.66;72.15;101391.54;107282;1259;108134;-64
2023/12/29 01:16:48;;;;;;;63.60;24.30;;;;;;;-1.64;72.10;101386.77;107276;1257;97858;-64
2023/12/29 01:19:16;;;;;;;55.50;22.80;;;;;;;-1.64;72.09;101378.84;107263;1255;97973;-63
2023/12/29 01:21:45;;;;;;;55.50;21.70;;;;;;;-1.62;72.07;101376.50;107326;1256;110262;-63
2023/12/29 01:24:13;;;;;;;50.10;22.90;;;;;;;-1.60;72.02;101376.96;107302;1257;108708;-64
2023/12/29 01:26:44;;;;;;;46.40;21.30;;;;;;;-1.58;72.15;101377.80;107278;1256;108711;-60
2023/12/29 01:29:12;;;;;;;48.40;21.30;;;;;;;-1.58;72.17;101380.94;107068;1261;97928;-60
2023/12/29 01:31:40;;;;;;;53.20;21.40;;;;;;;-1.55;72.02;101378.74;107123;1257;97924;-64
2023/12/29 01:34:09;;;;;;;48.20;22.20;;;;;;;-1.53;72.43;101377.11;107243;1259;112251;-65
2023/12/29 01:36:37;;;;;;;34.80;18.90;;;;;;;-1.49;72.58;101387.73;107298;1257;107314;-62
2023/12/29 01:39:06;;;;;;;34.90;18.60;;;;;;;-1.46;72.73;101393.11;107085;1257;107723;-61
2023/12/29 01:41:34;;;;;;;35.90;18.70;;;;;;;-1.41;73.10;101387.85;107247;1257;97855;-62
2023/12/29 01:44:02;;;;;;;35.40;19.00;;;;;;;-1.32;73.43;101382.52;107165;1257;97841;-63
2023/12/29 01:46:35;;;;;;;39.30;18.20;;;;;;;-1.26;73.64;101378.45;107296;1257;111455;-61
2023/12/29 01:49:04;;;;;;;36.10;18.80;;;;;;;-1.18;73.91;101375.23;107317;1256;107443;-60
2023/12/29 01:51:32;;;;;;;41.30;20.20;;;;;;;-1.09;73.90;101373.21;107066;1262;107621;-61
2023/12/29 01:54:01;;;;;;;49.30;21.10;;;;;;;-1.03;74.01;101369.31;107265;1257;97906;-61
2023/12/29 01:56:30;;;;;;;45.20;21.90;;;;;;;-0.94;74.20;101365.70;107125;1261;98486;-61
2023/12/29 01:58:58;;;;;;;54.20;23.30;;;;;;;-0.87;74.27;101363.20;107062;1257;111393;-62
2023/12/29 02:01:39;;;;;;;53.60;23.00;;;;;;;-0.82;74.21;101356.70;107125;1257;108952;-62
2023/12/29 02:04:09;;;;;;;50.40;23.40;;;;;;;-0.75;74.45;101361.23;107266;1257;108588;-61
2023/12/29 02:06:39;;;;;;;51.40;23.10;;;;;;;-0.69;74.78;101364.94;107302;1257;98487;-62
2023/12/29 02:09:08;;;;;;;55.80;22.50;;;;;;;-0.68;74.64;101367.37;107097;1256;97746;-62
2023/12/29 02:11:37;;;;;;;50.90;22.70;;;;;;;-0.65;74.50;101368.50;107329;1256;112068;-63
2023/12/29 02:14:06;;;;;;;43.20;18.80;;;;;;;-0.63;74.70;101373.56;107081;1257;108070;-62
2023/12/29 02:16:37;;;;;;;45.30;21.90;;;;;;;-0.66;74.50;101366.41;107063;1257;107538;-61
2023/12/29 02:19:24;;;;;;;53.40;22.00;;;;;;;-0.65;74.69;101365.50;107048;1256;97967;-65
2023/12/29 02:21:52;;;;;;;49.30;22.80;;;;;;;-0.62;74.62;101364.38;107126;1256;98389;-64
2023/12/29 02:24:21;;;;;;;45.00;21.30;;;;;;;-0.63;74.74;101366.14;107080;1257;111852;-63
2023/12/29 02:26:57;;;;;;;44.20;21.10;;;;;;;-0.65;74.58;101357.23;107104;1256;108393;-63
2023/12/29 02:29:28;;;;;;;40.80;18.80;;;;;;;-0.65;74.70;101358.09;107370;1257;106115;-64
2023/12/29 02:32:00;;;;;;;44.20;19.70;;;;;;;-0.62;74.61;101359.59;107131;1256;97881;-64
2023/12/29 02:34:31;;;;;;;35.80;18.60;;;;;;;-0.61;74.79;101359.02;107133;1256;97827;-62
2023/12/29 02:37:02;;;;;;;33.20;19.60;;;;;;;-0.62;74.59;101352.72;107159;1256;111320;-62
2023/12/29 02:39:31;;;;;;;39.10;18.50;;;;;;;-0.61;74.67;101356.58;107181;1256;107800;-62
2023/12/29 02:42:01;;;;;;;40.40;21.00;;;;;;;-0.66;74.40;101362.35;107135;1256;107080;-62
2023/12/29 02:44:29;;;;;;;36.70;20.60;;;;;;;-0.65;74.59;101358.80;107100;1256;97846;-63
2023/12/29 02:46:59;;;;;;;44.20;19.90;;;;;;;-0.63;74.37;101354.89;107137;1256;97823;-63
2023/12/29 02:49:27;;;;;;;39.30;19.60;;;;;;;-0.63;74.20;101355.40;107164;1256;111684;-62
2023/12/29 02:51:56;;;;;;;39.20;20.70;;;;;;;-0.64;73.90;101355.06;107071;1256;109698;-62
2023/12/29 02:54:24;;;;;;;36.50;20.10;;;;;;;-0.66;73.70;101356.36;107112;1256;107898;-65
2023/12/29 02:56:52;;;;;;;35.30;20.50;;;;;;;-0.68;73.65;101353.44;107137;1260;97840;-64
2023/12/29 02:59:21;;;;;;;40.00;22.40;;;;;;;-0.73;73.53;101355.19;107144;1256;97736;-66
2023/12/29 03:01:49;;;;;;;41.80;21.20;;;;;;;-0.81;73.51;101363.71;107121;1256;111693;-65
2023/12/29 03:04:18;;;;;;;41.50;21.40;;;;;;;-0.86;73.21;101370.73;107064;1257;108183;-64
2023/12/29 03:06:46;;;;;;;44.30;22.10;;;;;;;-0.90;73.45;101374.56;107143;1256;107649;-64
2023/12/29 03:09:15;;;;;;;39.60;21.80;;;;;;;-0.94;73.15;101370.11;107082;1256;97861;-63
2023/12/29 03:11:43;;;;;;;44.30;21.50;;;;;;;-0.99;73.26;101374.48;107172;1256;98403;-61
2023/12/29 03:14:11;;;;;;;49.40;21.90;;;;;;;-1.01;73.17;101380.00;107139;1256;112492;-64
2023/12/29 03:16:40;;;;;;;64.20;26.10;;;;;;;-1.02;73.41;101381.96;107156;1256;108105;-62
2023/12/29 03:19:08;;;;;;;53.90;23.80;;;;;;;-1.06;73.30;101386.67;107156;1257;107105;-61
2023/12/29 03:21:37;;;;;;;43.70;24.30;;;;;;;-1.09;73.40;101386.93;107145;1256;97965;-64
2023/12/29 03:24:05;;;;;;;39.50;21.10;;;;;;;-1.14;73.36;101389.19;107152;1256;97892;-63
2023/12/29 03:26:34;;;;;;;44.00;21.30;;;;;;;-1.17;73.27;101384.54;107187;1256;111975;-62
2023/12/29 03:29:02;;;;;;;41.00;22.10;;;;;;;-1.18;73.50;101386.67;107177;1256;108358;-67
2023/12/29 03:31:30;;;;;;;44.90;21.80;;;;;;;-1.20;73.46;101387.96;107112;1257;107813;-62
2023/12/29 03:33:59;;;;;;;49.00;23.10;;;;;;;-1.21;73.39;101397.16;107045;1257;97854;-63
2023/12/29 03:36:27;;;;;;;50.60;24.30;;;;;;;-1.25;73.56;101390.41;107062;1257;97858;-63
2023/12/29 03:38:58;;;;;;;51.90;25.30;;;;;;;-1.27;73.49;101387.97;107084;1257;111794;-62
2023/12/29 03:41:26;;;;;;;50.20;25.40;;;;;;;-1.27;73.59;101386.74;107151;1257;108516;-61
2023/12/29 03:43:56;;;;;;;53.30;25.50;;;;;;;-1.25;73.70;101381.40;107044;1257;108409;-62
2023/12/29 03:46:24;;;;;;;53.50;24.30;;;;;;;-1.21;73.90;101380.60;107174;1257;97909;-61
2023/12/29 03:48:53;;;;;;;48.50;24.60;;;;;;;-1.16;74.12;101373.77;107104;1256;98494;-62
2023/12/29 03:51:21;;;;;;;44.40;23.10;;;;;;;-1.13;74.34;101381.41;107134;1256;112130;-62
2023/12/29 03:53:50;;;;;;;43.10;22.80;;;;;;;-1.11;74.31;101380.30;107161;1257;108455;-61
2023/12/29 03:56:18;;;;;;;47.60;22.40;;;;;;;-1.11;74.38;101376.77;107096;1256;108375;-63
2023/12/29 03:58:47;;;;;;;51.30;23.80;;;;;;;-1.12;74.64;101381.38;107050;1257;97833;-60
2023/12/29 04:01:17;;;;;;;51.50;24.20;;;;;;;-1.14;74.55;101376.70;107133;1257;97747;-61
2023/12/29 04:03:46;;;;;;;47.30;21.50;;;;;;;-1.16;74.43;101366.89;107079;1257;112428;-62
2023/12/29 04:06:15;;;;;;;43.70;22.50;;;;;;;-1.19;74.65;101369.11;107075;1257;109285;-62
2023/12/29 04:08:43;;;;;;;47.90;22.60;;;;;;;-1.18;74.73;101377.00;107108;1257;107790;-64
2023/12/29 04:11:11;;;;;;;47.30;24.30;;;;;;;-1.20;74.27;101379.51;107087;1257;97848;-63
2023/12/29 04:13:40;;;;;;;55.60;27.20;;;;;;;-1.18;74.54;101376.12;106938;1256;97833;-64
2023/12/29 04:16:08;;;;;;;49.90;22.90;;;;;;;-1.18;74.44;101379.82;107145;1257;112027;-62
2023/12/29 04:18:37;;;;;;;53.40;25.80;;;;;;;-1.21;74.59;101384.30;107174;1256;108417;-64
2023/12/29 04:21:05;;;;;;;55.70;25.50;;;;;;;-1.27;74.27;101386.58;107113;1257;107738;-64
2023/12/29 04:23:34;;;;;;;57.10;25.20;;;;;;;-1.32;74.45;101389.00;107132;1260;97829;-61
2023/12/29 04:26:02;;;;;;;55.10;25.50;;;;;;;-1.32;74.42;101391.84;107151;1256;98470;-62
2023/12/29 04:28:30;;;;;;;53.00;25.30;;;;;;;-1.32;74.39;101387.61;107139;1256;111289;-61
2023/12/29 04:30:59;;;;;;;54.60;24.60;;;;;;;-1.34;74.31;101386.44;107217;1256;107658;-64
2023/12/29 04:33:29;;;;;;;57.70;25.70;;;;;;;-1.37;74.36;101387.58;107078;1256;107073;-64
2023/12/29 04:35:57;;;;;;;64.90;26.30;;;;;;;-1.41;74.40;101394.73;107146;1257;97840;-64
2023/12/29 04:38:25;;;;;;;57.50;25.80;;;;;;;-1.45;73.95;101393.08;107142;1260;98641;-63
2023/12/29 04:40:55;;;;;;;58.90;27.50;;;;;;;-1.46;74.22;101394.88;107135;1256;111835;-63
2023/12/29 04:43:24;;;;;;;59.30;26.80;;;;;;;-1.48;74.13;101395.61;107170;1256;108334;-63
2023/12/29 04:45:52;;;;;;;51.90;25.40;;;;;;;-1.47;74.15;101394.71;107173;1260;107463;-64
2023/12/29 04:48:21;;;;;;;52.30;24.40;;;;;;;-1.45;74.45;101391.52;107009;1257;97925;-63
2023/12/29 04:50:49;;;;;;;51.50;25.30;;;;;;;-1.44;74.24;101399.91;107060;1257;97732;-63
2023/12/29 04:53:17;;;;;;;52.50;24.30;;;;;;;-1.43;74.57;101396.20;107142;1260;111510;-64
2023/12/29 04:55:46;;;;;;;63.10;28.40;;;;;;;-1.45;74.36;101406.64;107063;1261;108125;-63
2023/12/29 04:58:14;;;;;;;56.40;24.80;;;;;;;-1.49;74.23;101404.61;107066;1257;108488;-63
2023/12/29 05:00:43;;;;;;;54.70;24.30;;;;;;;-1.57;74.50;101402.02;107142;1256;97836;-65
2023/12/29 05:03:11;;;;;;;58.50;27.00;;;;;;;-1.63;74.20;101402.73;107112;1257;97732;-62
2023/12/29 05:05:40;;;;;;;58.20;27.00;;;;;;;-1.65;74.07;101404.02;107076;1262;112381;-65
2023/12/29 05:08:09;;;;;;;55.80;25.40;;;;;;;-1.69;74.33;101406.77;107123;1256;108309;-62
2023/12/29 05:10:38;;;;;;;46.80;23.30;;;;;;;-1.72;74.06;101414.57;107118;1256;108317;-62
2023/12/29 05:13:06;;;;;;;55.90;23.30;;;;;;;-1.71;74.46;101405.95;107074;1256;97848;-68
2023/12/29 05:15:34;;;;;;;46.90;23.50;;;;;;;-1.70;74.52;101405.58;106953;1258;98389;-67
2023/12/29 05:18:03;;;;;;;46.40;24.50;;;;;;;-1.71;74.45;101406.28;107104;1257;112267;-65
2023/12/29 05:20:33;;;;;;;50.70;23.00;;;;;;;-1.71;74.12;101407.01;107116;1257;108028;-70
2023/12/29 05:23:01;;;;;;;49.70;24.20;;;;;;;-1.71;74.34;101411.23;107133;1256;106639;-67
2023/12/29 05:25:30;;;;;;;49.60;23.70;;;;;;;-1.75;74.29;101422.41;107189;1256;97840;-70
2023/12/29 05:27:58;;;;;;;45.40;22.70;;;;;;;-1.79;74.23;101432.34;107002;1256;98400;-68
2023/12/29 05:30:31;;;;;;;59.30;25.30;;;;;;;-1.87;74.22;101439.94;107285;1257;111471;-69
2023/12/29 05:32:59;;;;;;;50.90;25.50;;;;;;;-1.95;74.22;101438.20;107062;1259;108495;-69
2023/12/29 05:35:28;;;;;;;45.40;25.30;;;;;;;-1.95;74.32;101437.16;107218;1256;107749;-71
2023/12/29 05:37:56;;;;;;;53.70;24.40;;;;;;;-1.97;74.46;101441.08;107196;1256;97948;-68
2023/12/29 05:40:24;;;;;;;50.90;24.70;;;;;;;-2.00;74.32;101439.73;107184;1256;99542;-68
2023/12/29 05:42:53;;;;;;;52.90;26.00;;;;;;;-2.02;74.22;101444.55;107179;1256;111976;-65
2023/12/29 05:45:21;;;;;;;47.50;24.10;;;;;;;-2.06;74.46;101443.92;107288;1254;108314;-65
2023/12/29 05:47:49;;;;;;;48.60;26.20;;;;;;;-2.11;74.15;101453.55;107223;1257;108318;-65
2023/12/29 05:50:18;;;;;;;50.50;23.50;;;;;;;-2.18;74.22;101451.25;107300;1256;97838;-68
2023/12/29 05:52:51;;;;;;;45.50;24.00;;;;;;;-2.23;73.69;101448.73;107315;1256;97723;-69
2023/12/29 05:55:20;;;;;;;;;;;;;;;-2.26;73.72;101450.76;107352;1256;111478;-71
2023/12/29 05:57:48;;;;;;;56.80;24.50;;;;;;;-2.29;74.10;101451.52;107363;1256;108320;-70
2023/12/29 06:00:17;;;;;;;59.10;27.00;;;;;;;-2.32;74.18;101444.23;107273;1257;108216;-72
2023/12/29 06:02:45;;;;;;;61.10;34.10;;;;;;;-2.33;74.30;101452.50;107350;1256;97932;-69
2023/12/29 06:05:15;;;;;;;54.80;31.50;;;;;;;-2.36;74.06;101448.17;107297;1259;97849;-70
2023/12/29 06:07:44;;;;;;;59.10;32.20;;;;;;;-2.36;74.01;101448.35;107312;1259;110218;-69
2023/12/29 06:10:12;;;;;;;68.10;38.30;;;;;;;-2.36;74.44;101442.91;107274;1257;107865;-69
2023/12/29 06:12:40;;;;;;;59.80;28.00;;;;;;;-2.37;74.19;101439.75;107268;1256;107175;-67
2023/12/29 06:15:09;;;;;;;48.60;26.10;;;;;;;-2.38;74.11;101439.28;107297;1254;97838;-68
2023/12/29 06:17:40;;;;;;;52.00;28.40;;;;;;;-2.40;73.76;101434.73;107340;1257;98379;-69
2023/12/29 06:20:10;;;;;;;59.90;28.30;;;;;;;-2.41;73.89;101436.88;107239;1257;112094;-69
2023/12/29 06:22:40;;;;;;;47.40;26.30;;;;;;;-2.42;74.27;101439.36;107321;1257;109279;-70
2023/12/29 06:25:11;;;;;;;52.50;27.50;;;;;;;-2.43;74.12;101443.44;107156;1255;107647;-65
2023/12/29 06:27:40;;;;;;;50.70;25.20;;;;;;;-2.44;74.04;101446.08;107334;1255;97845;-66
2023/12/29 06:30:10;;;;;;;49.90;26.80;;;;;;;-2.42;74.36;101454.12;107354;1254;97855;-66
2023/12/29 06:32:40;;;;;;;53.50;26.00;;;;;;;-2.39;74.25;101453.70;107367;1257;112174;-66
2023/12/29 06:35:11;;;;;;;50.20;27.20;;;;;;;-2.35;74.67;101454.48;107324;1259;107426;-66
2023/12/29 06:37:41;;;;;;;57.80;29.50;;;;;;;-2.32;74.25;101463.72;107318;1255;108306;-69
2023/12/29 06:40:10;;;;;;;63.40;30.60;;;;;;;-2.25;74.66;101465.67;107296;1257;97963;-71
2023/12/29 06:42:39;;;;;;;68.90;34.40;;;;;;;-2.15;74.49;101463.49;107341;1257;97767;-72
2023/12/29 06:45:08;;;;;;;64.80;33.60;;;;;;;-2.08;75.04;101466.99;107282;1257;112047;-71
2023/12/29 06:47:36;;;;;;;68.70;34.60;;;;;;;-1.98;75.22;101463.27;107337;1257;106883;-72
2023/12/29 06:50:06;;;;;;;74.70;35.10;;;;;;;-1.87;75.40;101469.13;107281;1257;108408;-71
2023/12/29 06:52:35;;;;;;;66.70;34.20;;;;;;;-1.73;75.86;101465.79;107291;1256;97851;-73
2023/12/29 06:55:04;;;;;;;75.40;35.60;;;;;;;-1.62;75.92;101465.48;107064;1256;97754;-69
2023/12/29 06:57:32;;;;;;;74.00;34.90;;;;;;;-1.52;75.85;101468.94;107331;1256;108972;-71
2023/12/29 07:00:01;;;;;;;74.50;36.10;;;;;;;-1.43;75.98;101472.20;107322;1259;108127;-71
2023/12/29 07:02:30;;;;;;;82.70;40.10;;;;;;;-1.32;76.36;101468.73;107279;1257;108277;-65
2023/12/29 07:04:59;;;;;;;78.90;39.80;;;;;;;-1.22;76.11;101479.91;107285;1257;97920;-66
2023/12/29 07:07:27;;;;;;;86.40;38.70;;;;;;;-1.15;76.28;101477.79;107292;1257;97708;-68
2023/12/29 07:09:56;;;;;;;77.70;38.70;;;;;;;-1.09;76.06;101482.70;107301;1257;112974;-66
2023/12/29 07:12:24;;;;;;;78.30;36.70;;;;;;;-0.99;76.28;101479.42;107304;1257;108522;-67
2023/12/29 07:14:53;;;;;;;80.10;38.00;;;;;;;-0.89;76.25;101481.96;107284;1256;107218;-69
2023/12/29 07:17:23;;;;;;;69.80;38.10;;;;;;;-0.80;76.03;101480.10;107273;1256;97823;-67
2023/12/29 07:19:51;;;;;;;77.40;38.50;;;;;;;-0.71;76.00;101481.59;107306;1256;98379;-66
2023/12/29 07:22:20;;;;;;;75.60;38.00;;;;;;;-0.62;76.11;101480.27;107290;1257;111051;-69
2023/12/29 07:24:48;;;;;;;73.60;37.90;;;;;;;-0.51;76.15;101478.34;107315;1257;107387;-70
2023/12/29 07:27:17;;;;;;;79.40;40.20;;;;;;;-0.38;76.48;101483.95;107138;1256;108884;-70
2023/12/29 07:29:45;;;;;;;75.70;38.10;;;;;;;-0.27;76.21;101485.20;107314;1256;97836;-67
2023/12/29 07:32:13;;;;;;;78.40;37.10;;;;;;;-0.17;76.11;101492.82;107135;1257;98499;-72
2023/12/29 07:34:44;;;;;;;60.50;34.30;;;;;;;-0.09;75.97;101493.07;107313;1256;110444;-68
2023/12/29 07:37:12;;;;;;;58.00;31.70;;;;;;;-0.02;75.51;101493.38;107327;1256;107146;-69
2023/12/29 07:39:41;;;;;;;66.80;36.70;;;;;;;0.10;75.67;101492.98;107281;1259;108424;-66
2023/12/29 07:42:11;;;;;;;74.50;40.10;;;;;;;0.23;75.85;101490.27;107306;1256;97957;-66
2023/12/29 07:44:39;;;;;;;77.90;43.40;;;;;;;0.35;75.63;101490.92;107333;1257;98537;-66
2023/12/29 07:47:08;;;;;;;86.80;46.80;;;;;;;0.44;75.41;101494.12;107282;1257;111781;-66
2023/12/29 07:49:36;;;;;;;94.00;47.80;;;;;;;0.52;75.14;101495.13;107332;1257;108135;-69
2023/12/29 07:52:05;;;;;;;100.60;46.30;;;;;;;0.57;74.79;101504.28;107304;1255;108512;-73
2023/12/29 07:54:33;;;;;;;78.10;39.80;;;;;;;0.64;74.80;101504.24;107291;1256;97839;-72
2023/12/29 07:57:02;;;;;;;82.00;39.50;;;;;;;0.69;74.45;101493.27;107324;1256;97719;-70
2023/12/29 07:59:30;;;;;;;72.30;35.30;;;;;;;0.78;74.53;101494.39;107253;1257;110972;-71
2023/12/29 08:01:59;;;;;;;63.30;34.70;;;;;;;0.85;74.26;101497.64;107314;1257;108258;-72
2023/12/29 08:04:27;;;;;;;62.80;34.30;;;;;;;0.94;74.25;101497.14;107294;1255;107204;-72
2023/12/29 08:06:56;;;;;;;73.30;36.20;;;;;;;1.04;73.90;101501.02;107266;1255;97864;-71
2023/12/29 08:09:25;;;;;;;71.90;39.40;;;;;;;1.11;73.86;101502.36;107309;1255;98550;-71
2023/12/29 08:11:53;;;;;;;60.10;35.90;;;;;;;1.25;73.97;101499.52;107351;1257;110682;-72
2023/12/29 08:14:22;;;;;;;80.90;41.20;;;;;;;1.44;74.19;101491.37;107260;1256;108819;-67
2023/12/29 08:16:50;;;;;;;56.60;33.40;;;;;;;1.68;74.12;101484.80;107177;1256;108144;-66
2023/12/29 08:19:19;;;;;;;52.80;33.30;;;;;;;1.99;73.84;101482.67;107303;1259;97842;-67
2023/12/29 08:21:48;;;;;;;67.70;34.70;;;;;;;2.29;73.32;101479.11;107303;1257;97755;-67
2023/12/29 08:24:16;;;;;;;73.60;38.40;;;;;;;2.57;72.42;101486.27;107234;1256;111256;-67
2023/12/29 08:26:46;;;;;;;74.90;39.10;;;;;;;2.85;72.35;101485.54;107240;1256;108742;-72
2023/12/29 08:29:15;;;;;;;73.20;39.50;;;;;;;3.11;71.56;101485.97;107251;1257;108468;-70
2023/12/29 08:31:44;;;;;;;80.00;41.20;;;;;;;3.43;71.16;101483.11;107325;1259;97810;-74
2023/12/29 08:34:13;;;;;;;84.50;41.60;;;;;;;3.73;71.49;101487.86;107297;1255;97729;-70
2023/12/29 08:36:41;;;;;;;74.10;40.90;;;;;;;4.12;71.41;101491.64;107254;1257;111769;-71
2023/12/29 08:39:11;;;;;;;69.00;36.70;;;;;;;4.42;71.10;101491.40;107278;1255;108361;-72
2023/12/29 08:41:40;;;;;;;70.00;37.70;;;;;;;4.63;69.86;101488.75;107290;1257;106336;-71
2023/12/29 08:44:09;;;;;;;67.10;38.60;;;;;;;4.73;69.87;101485.36;106661;1259;820656;-71
2023/12/29 08:46:37;;;;;;;67.90;36.20;;;;;;;4.99;69.77;101476.20;107289;1257;98470;-70
2023/12/29 08:49:05;;;;;;;69.20;39.20;;;;;;;5.21;69.48;101478.18;107257;1257;111882;-68
2023/12/29 08:51:34;;;;;;;66.50;39.00;;;;;;;5.42;69.25;101479.90;107203;1256;107784;-65
2023/12/29 08:54:03;;;;;;;70.50;40.10;;;;;;;5.56;68.56;101475.38;107219;1256;108559;-66
2023/12/29 08:56:31;;;;;;;65.10;40.90;;;;;;;5.79;68.68;101472.12;107213;1256;97870;-67
2023/12/29 08:58:59;;;;;;;71.40;38.80;;;;;;;6.15;68.38;101471.35;107302;1256;97714;-66
2023/12/29 09:01:27;;;;;;;73.60;41.30;;;;;;;6.49;67.89;101472.02;107243;1259;111802;-69
2023/12/29 09:03:56;;;;;;;71.90;40.90;;;;;;;6.78;67.70;101466.72;107294;1255;108345;-70
2023/12/29 09:06:25;;;;;;;62.90;38.90;;;;;;;7.02;66.59;101460.77;107313;1255;108661;-68
2023/12/29 09:08:53;;;;;;;66.60;36.90;;;;;;;7.23;66.34;101462.10;107254;1255;97826;-68
2023/12/29 09:11:21;;;;;;;66.80;39.50;;;;;;;7.44;64.88;101458.27;107327;1257;98360;-67
2023/12/29 09:13:50;;;;;;;68.10;39.70;;;;;;;7.71;64.07;101456.53;107272;1256;111309;-67
2023/12/29 09:16:19;;;;;;;64.00;40.70;;;;;;;8.02;63.48;101452.54;107173;1256;108242;-68
2023/12/29 09:18:47;;;;;;;67.50;38.80;;;;;;;8.48;63.48;101446.83;107299;1259;107814;-70
2023/12/29 09:21:16;;;;;;;72.00;39.90;;;;;;;8.87;62.89;101440.56;107256;1257;97833;-67
2023/12/29 09:23:44;;;;;;;81.50;42.60;;;;;;;9.11;61.94;101435.05;107265;1256;98386;-67
2023/12/29 09:26:15;;;;;;;75.40;41.00;;;;;;;9.39;61.69;101430.36;107269;1257;111676;-67
2023/12/29 09:28:46;;;;;;;67.90;41.40;;;;;;;9.54;60.45;101433.05;107277;1257;107316;-67
2023/12/29 09:31:14;;;;;;;58.20;35.30;;;;;;;9.71;60.01;101426.61;107284;1256;107558;-67
2023/12/29 09:33:43;;;;;;;74.20;38.50;;;;;;;9.97;59.58;101424.52;107271;1256;97833;-66
2023/12/29 09:36:11;;;;;;;65.30;38.00;;;;;;;10.21;59.43;101422.86;107290;1257;98415;-66
2023/12/29 09:38:41;;;;;;;61.20;35.30;;;;;;;10.50;59.30;101411.02;107320;1255;111077;-67
2023/12/29 09:41:14;;;;;;;73.00;36.30;;;;;;;10.74;59.04;101407.69;107284;1259;107701;-67
2023/12/29 09:43:48;;;;;;;58.90;35.40;;;;;;;10.88;58.09;101398.86;107211;1257;108643;-66
2023/12/29 09:46:20;;;;;;;54.70;33.20;;;;;;;11.06;56.30;101402.85;107245;1257;97863;-65
2023/12/29 09:48:52;;;;;;;55.20;32.90;;;;;;;11.12;55.91;101400.92;107332;1257;97865;-65
2023/12/29 09:51:24;;;;;;;41.30;28.10;;;;;;;11.26;56.25;101393.89;107137;1256;111732;-66
2023/12/29 09:53:52;;;;;;;45.40;27.80;;;;;;;11.58;55.58;101395.59;107241;1256;107272;-67
2023/12/29 09:56:20;;;;;;;46.90;28.40;;;;;;;11.96;55.29;101397.98;107203;1256;107349;-66
2023/12/29 09:58:51;;;;;;;44.50;27.50;;;;;;;12.44;55.17;101401.48;107248;1257;97847;-66
2023/12/29 10:01:24;;;;;;;49.40;29.00;;;;;;;12.87;54.39;101392.14;107241;1260;98341;-66
2023/12/29 10:03:53;;;;;;;42.60;28.80;;;;;;;13.32;52.88;101375.77;107266;1257;111733;-67
2023/12/29 10:06:25;;;;;;;43.60;27.90;;;;;;;13.70;52.34;101372.01;107272;1257;107839;-66
2023/12/29 10:08:56;;;;;;;48.20;27.40;;;;;;;14.14;51.77;101382.31;107300;1255;107070;-67
2023/12/29 10:11:25;;;;;;;40.70;27.30;;;;;;;14.53;50.79;101375.21;107204;1255;97723;-67
2023/12/29 10:13:59;;;;;;;41.40;27.90;;;;;;;14.91;49.87;101363.14;107250;1256;98563;-67
2023/12/29 10:16:42;;;;;;;40.20;25.60;;;;;;;15.39;49.82;101349.59;107280;1257;111786;-67
2023/12/29 10:19:36;;;;;;;42.60;29.50;;;;;;;15.75;48.23;101347.05;107250;1257;108358;-67
2023/12/29 10:22:21;;;;;;;43.10;26.70;;;;;;;16.04;47.28;101348.44;107257;1257;108289;-66
2023/12/29 10:24:51;;;;;;;36.50;24.60;;;;;;;16.08;46.61;101349.89;107215;1256;98632;-65
2023/12/29 10:27:19;;;;;;;44.80;25.60;;;;;;;16.27;46.63;101347.00;107275;1257;97815;-67
2023/12/29 10:29:48;;;;;;;40.80;25.30;;;;;;;16.47;45.80;101348.72;107287;1256;111782;-68
2023/12/29 10:32:16;;;;;;;39.70;24.60;;;;;;;16.66;45.02;101359.24;107283;1257;108568;-68
2023/12/29 10:34:45;;;;;;;40.90;27.40;;;;;;;16.93;43.99;101368.45;107272;1259;108265;-67
2023/12/29 10:37:22;;;;;;;47.10;26.20;;;;;;;17.01;43.67;101376.77;107255;1257;97858;-68
2023/12/29 10:39:56;;;;;;;42.20;26.90;;;;;;;17.39;44.06;101373.51;107255;1259;97993;-68
2023/12/29 10:42:25;;;;;;;41.00;27.60;;;;;;;17.84;43.28;101361.70;107230;1256;111416;-68
2023/12/29 10:45:12;;;;;;;48.00;29.00;;;;;;;18.23;42.60;101355.02;107243;1259;108581;-66
2023/12/29 10:47:44;;;;;;;42.90;27.50;;;;;;;18.78;41.48;101351.81;107215;1257;107472;-67
2023/12/29 10:50:13;;;;;;;38.10;25.00;;;;;;;19.17;40.31;101338.80;107108;1256;98030;-67
2023/12/29 10:52:42;;;;;;;42.20;25.20;;;;;;;19.05;39.17;101336.04;107063;1255;98386;-68
2023/12/29 10:55:11;;;;;;;44.60;25.10;;;;;;;18.48;39.61;101331.04;107214;1257;112218;-67
2023/12/29 10:57:40;;;;;;;38.40;24.10;;;;;;;17.83;39.63;101334.23;107138;1257;107214;-67
2023/12/29 11:00:12;;;;;;;48.60;22.10;;;;;;;17.37;39.08;101322.95;107232;1256;108585;-67
2023/12/29 11:02:41;;;;;;;36.90;21.40;;;;;;;17.28;39.12;101318.79;107217;1256;97976;-69
2023/12/29 11:05:10;;;;;;;39.90;23.50;;;;;;;17.25;38.85;101318.76;107303;1255;97838;-67
2023/12/29 11:07:40;;;;;;;40.40;24.10;;;;;;;16.96;39.20;101314.98;107283;1257;111524;-65